sensor_id;sensor_type;location;lat;lon;timestamp;temperature;humidity
45803;DHT22;31504;51.716;9.184;2023-04-01T00:00:43;19.10;53.70
45803;DHT22;31504;51.716;9.184;2023-04-01T00:03:44;19.20;53.70
45803;DHT22;31504;51.716;9.184;2023-04-01T00:06:45;19.20;53.50
45803;DHT22;31504;51.716;9.184;2023-04-01T00:09:47;19.20;53.80
45803;DHT22;31504;51.716;9.184;2023-04-01T00:12:47;19.20;53.50
45803;DHT22;31504;51.716;9.184;2023-04-01T00:15:48;19.20;53.40
45803;DHT22;31504;51.716;9.184;2023-04-01T00:18:49;19.20;53.50
45803;DHT22;31504;51.716;9.184;2023-04-01T00:21:50;19.20;53.70
45803;DHT22;31504;51.716;9.184;2023-04-01T00:24:50;19.20;53.70
45803;DHT22;31504;51.716;9.184;2023-04-01T00:27:51;19.20;53.70
45803;DHT22;31504;51.716;9.184;2023-04-01T00:30:51;19.20;53.60
45803;DHT22;31504;51.716;9.184;2023-04-01T00:33:52;19.20;53.60
45803;DHT22;31504;51.716;9.184;2023-04-01T00:36:52;19.20;53.70
45803;DHT22;31504;51.716;9.184;2023-04-01T00:39:53;19.10;53.60
45803;DHT22;31504;51.716;9.184;2023-04-01T00:42:53;19.20;53.60
45803;DHT22;31504;51.716;9.184;2023-04-01T00:45:54;19.20;53.60
45803;DHT22;31504;51.716;9.184;2023-04-01T00:48:55;19.20;53.60
45803;DHT22;31504;51.716;9.184;2023-04-01T00:51:55;19.20;53.70
45803;DHT22;31504;51.716;9.184;2023-04-01T00:54:57;19.20;53.60
45803;DHT22;31504;51.716;9.184;2023-04-01T00:57:59;19.10;53.70
45803;DHT22;31504;51.716;9.184;2023-04-01T01:01:02;19.20;53.70
45803;DHT22;31504;51.716;9.184;2023-04-01T01:04:02;19.20;53.60
45803;DHT22;31504;51.716;9.184;2023-04-01T01:07:07;19.10;53.60
45803;DHT22;31504;51.716;9.184;2023-04-01T01:10:15;19.20;53.70
45803;DHT22;31504;51.716;9.184;2023-04-01T01:13:17;19.20;53.70
45803;DHT22;31504;51.716;9.184;2023-04-01T01:16:26;19.20;53.80
45803;DHT22;31504;51.716;9.184;2023-04-01T01:19:39;19.20;54.20
45803;DHT22;31504;51.716;9.184;2023-04-01T01:26:00;19.20;53.50
45803;DHT22;31504;51.716;9.184;2023-04-01T01:35:16;19.20;53.50
45803;DHT22;31504;51.716;9.184;2023-04-01T01:38:21;19.10;53.50
45803;DHT22;31504;51.716;9.184;2023-04-01T01:41:22;19.20;53.60
45803;DHT22;31504;51.716;9.184;2023-04-01T01:44:23;19.10;53.60
45803;DHT22;31504;51.716;9.184;2023-04-01T01:47:26;19.20;53.60
45803;DHT22;31504;51.716;9.184;2023-04-01T01:50:26;19.10;53.70
45803;DHT22;31504;51.716;9.184;2023-04-01T01:53:27;19.10;53.70
45803;DHT22;31504;51.716;9.184;2023-04-01T01:56:28;19.10;53.60
45803;DHT22;31504;51.716;9.184;2023-04-01T01:59:29;19.10;53.60
45803;DHT22;31504;51.716;9.184;2023-04-01T02:02:30;19.10;53.70
45803;DHT22;31504;51.716;9.184;2023-04-01T02:05:32;19.10;53.60
45803;DHT22;31504;51.716;9.184;2023-04-01T02:08:55;19.10;53.60
45803;DHT22;31504;51.716;9.184;2023-04-01T02:11:57;19.10;53.60
45803;DHT22;31504;51.716;9.184;2023-04-01T02:15:04;19.10;53.60
45803;DHT22;31504;51.716;9.184;2023-04-01T02:18:05;19.10;53.60
45803;DHT22;31504;51.716;9.184;2023-04-01T02:21:07;19.10;53.70
45803;DHT22;31504;51.716;9.184;2023-04-01T02:24:08;19.10;53.70
45803;DHT22;31504;51.716;9.184;2023-04-01T02:27:10;19.10;53.70
45803;DHT22;31504;51.716;9.184;2023-04-01T02:30:12;19.10;53.70
45803;DHT22;31504;51.716;9.184;2023-04-01T02:33:12;19.10;53.70
45803;DHT22;31504;51.716;9.184;2023-04-01T02:36:13;19.10;53.70
45803;DHT22;31504;51.716;9.184;2023-04-01T02:39:14;19.10;53.80
45803;DHT22;31504;51.716;9.184;2023-04-01T02:42:15;19.10;53.70
45803;DHT22;31504;51.716;9.184;2023-04-01T02:45:15;19.10;53.70
45803;DHT22;31504;51.716;9.184;2023-04-01T02:48:16;19.10;53.70
45803;DHT22;31504;51.716;9.184;2023-04-01T02:51:16;19.10;53.70
45803;DHT22;31504;51.716;9.184;2023-04-01T02:54:17;19.10;53.70
45803;DHT22;31504;51.716;9.184;2023-04-01T02:57:17;19.10;53.70
45803;DHT22;31504;51.716;9.184;2023-04-01T03:00:18;19.10;53.70
45803;DHT22;31504;51.716;9.184;2023-04-01T03:03:18;19.10;53.70
45803;DHT22;31504;51.716;9.184;2023-04-01T03:06:19;19.10;53.60
45803;DHT22;31504;51.716;9.184;2023-04-01T03:09:19;19.10;53.70
45803;DHT22;31504;51.716;9.184;2023-04-01T03:12:20;19.10;53.60
45803;DHT22;31504;51.716;9.184;2023-04-01T03:15:20;19.10;53.60
45803;DHT22;31504;51.716;9.184;2023-04-01T03:18:20;19.10;53.70
45803;DHT22;31504;51.716;9.184;2023-04-01T03:21:22;19.10;53.70
45803;DHT22;31504;51.716;9.184;2023-04-01T03:24:22;19.10;53.70
45803;DHT22;31504;51.716;9.184;2023-04-01T03:27:23;19.10;53.60
45803;DHT22;31504;51.716;9.184;2023-04-01T03:30:23;19.10;53.70
45803;DHT22;31504;51.716;9.184;2023-04-01T03:33:24;19.10;53.60
45803;DHT22;31504;51.716;9.184;2023-04-01T03:36:24;19.10;53.60
45803;DHT22;31504;51.716;9.184;2023-04-01T03:39:25;19.10;53.70
45803;DHT22;31504;51.716;9.184;2023-04-01T03:42:26;19.10;53.60
45803;DHT22;31504;51.716;9.184;2023-04-01T03:45:26;19.10;53.60
45803;DHT22;31504;51.716;9.184;2023-04-01T03:48:27;19.10;53.60
45803;DHT22;31504;51.716;9.184;2023-04-01T03:51:27;19.10;53.70
45803;DHT22;31504;51.716;9.184;2023-04-01T03:54:28;19.10;53.60
45803;DHT22;31504;51.716;9.184;2023-04-01T03:57:30;19.10;53.50
45803;DHT22;31504;51.716;9.184;2023-04-01T04:00:31;19.10;53.50
45803;DHT22;31504;51.716;9.184;2023-04-01T04:03:31;19.10;53.50
45803;DHT22;31504;51.716;9.184;2023-04-01T04:06:32;19.10;53.50
45803;DHT22;31504;51.716;9.184;2023-04-01T04:09:33;19.10;53.50
45803;DHT22;31504;51.716;9.184;2023-04-01T04:12:33;19.10;53.60
45803;DHT22;31504;51.716;9.184;2023-04-01T04:15:33;19.10;53.60
45803;DHT22;31504;51.716;9.184;2023-04-01T04:18:34;19.10;53.60
45803;DHT22;31504;51.716;9.184;2023-04-01T04:21:34;19.10;53.70
45803;DHT22;31504;51.716;9.184;2023-04-01T04:24:35;19.10;53.70
45803;DHT22;31504;51.716;9.184;2023-04-01T04:27:36;19.10;53.70
45803;DHT22;31504;51.716;9.184;2023-04-01T04:30:36;19.10;53.70
45803;DHT22;31504;51.716;9.184;2023-04-01T04:33:37;19.10;53.70
45803;DHT22;31504;51.716;9.184;2023-04-01T04:36:37;19.10;53.70
45803;DHT22;31504;51.716;9.184;2023-04-01T04:39:37;19.10;53.70
45803;DHT22;31504;51.716;9.184;2023-04-01T04:42:38;19.10;53.60
45803;DHT22;31504;51.716;9.184;2023-04-01T04:45:38;19.10;53.60
45803;DHT22;31504;51.716;9.184;2023-04-01T04:48:39;19.10;53.60
45803;DHT22;31504;51.716;9.184;2023-04-01T04:51:39;19.10;53.70
45803;DHT22;31504;51.716;9.184;2023-04-01T04:54:40;19.10;53.70
45803;DHT22;31504;51.716;9.184;2023-04-01T04:57:40;19.10;53.70
45803;DHT22;31504;51.716;9.184;2023-04-01T05:00:41;19.10;54.30
45803;DHT22;31504;51.716;9.184;2023-04-01T05:03:41;19.10;53.70
45803;DHT22;31504;51.716;9.184;2023-04-01T05:06:42;19.10;53.70
45803;DHT22;31504;51.716;9.184;2023-04-01T05:09:42;19.10;53.70
45803;DHT22;31504;51.716;9.184;2023-04-01T05:12:43;19.10;53.70
45803;DHT22;31504;51.716;9.184;2023-04-01T05:15:43;19.10;53.70
45803;DHT22;31504;51.716;9.184;2023-04-01T05:18:44;19.10;53.70
45803;DHT22;31504;51.716;9.184;2023-04-01T05:21:45;19.10;53.70
45803;DHT22;31504;51.716;9.184;2023-04-01T05:24:45;19.10;53.70
45803;DHT22;31504;51.716;9.184;2023-04-01T05:27:45;19.10;53.70
45803;DHT22;31504;51.716;9.184;2023-04-01T05:30:46;19.00;53.60
45803;DHT22;31504;51.716;9.184;2023-04-01T05:33:46;19.00;53.60
45803;DHT22;31504;51.716;9.184;2023-04-01T05:36:47;19.10;53.70
45803;DHT22;31504;51.716;9.184;2023-04-01T05:39:47;19.00;53.60
45803;DHT22;31504;51.716;9.184;2023-04-01T05:42:48;19.10;53.50
45803;DHT22;31504;51.716;9.184;2023-04-01T05:45:48;19.30;53.20
45803;DHT22;31504;51.716;9.184;2023-04-01T05:48:48;19.40;53.00
45803;DHT22;31504;51.716;9.184;2023-04-01T05:51:49;19.50;52.80
45803;DHT22;31504;51.716;9.184;2023-04-01T05:54:49;19.50;52.50
45803;DHT22;31504;51.716;9.184;2023-04-01T05:57:50;19.50;52.60
45803;DHT22;31504;51.716;9.184;2023-04-01T06:00:51;19.50;52.60
45803;DHT22;31504;51.716;9.184;2023-04-01T06:03:51;19.60;52.60
45803;DHT22;31504;51.716;9.184;2023-04-01T06:06:51;19.40;52.70
45803;DHT22;31504;51.716;9.184;2023-04-01T06:09:52;19.50;52.50
45803;DHT22;31504;51.716;9.184;2023-04-01T06:16:01;19.50;52.70
45803;DHT22;31504;51.716;9.184;2023-04-01T06:22:30;19.40;52.90
45803;DHT22;31504;51.716;9.184;2023-04-01T06:25:38;19.40;52.90
45803;DHT22;31504;51.716;9.184;2023-04-01T06:29:00;19.30;53.20
45803;DHT22;31504;51.716;9.184;2023-04-01T06:32:13;19.30;52.90
45803;DHT22;31504;51.716;9.184;2023-04-01T06:35:17;19.20;53.30
45803;DHT22;31504;51.716;9.184;2023-04-01T06:48:10;19.20;53.40
45803;DHT22;31504;51.716;9.184;2023-04-01T06:54:21;19.10;53.40
45803;DHT22;31504;51.716;9.184;2023-04-01T06:57:41;19.10;53.40
45803;DHT22;31504;51.716;9.184;2023-04-01T07:00:43;19.20;53.20
45803;DHT22;31504;51.716;9.184;2023-04-01T07:03:47;19.30;53.20
45803;DHT22;31504;51.716;9.184;2023-04-01T07:06:56;19.50;53.10
45803;DHT22;31504;51.716;9.184;2023-04-01T07:09:57;19.60;52.70
45803;DHT22;31504;51.716;9.184;2023-04-01T07:13:00;19.60;52.80
45803;DHT22;31504;51.716;9.184;2023-04-01T07:16:12;19.70;52.60
45803;DHT22;31504;51.716;9.184;2023-04-01T07:22:45;19.80;52.70
45803;DHT22;31504;51.716;9.184;2023-04-01T07:25:47;19.80;52.50
45803;DHT22;31504;51.716;9.184;2023-04-01T07:28:48;19.80;52.50
45803;DHT22;31504;51.716;9.184;2023-04-01T07:32:09;19.80;52.40
45803;DHT22;31504;51.716;9.184;2023-04-01T07:35:18;19.80;52.80
45803;DHT22;31504;51.716;9.184;2023-04-01T07:44:34;19.80;52.60
45803;DHT22;31504;51.716;9.184;2023-04-01T07:47:45;19.80;52.50
45803;DHT22;31504;51.716;9.184;2023-04-01T07:54:11;19.90;52.70
45803;DHT22;31504;51.716;9.184;2023-04-01T07:57:19;19.90;52.40
45803;DHT22;31504;51.716;9.184;2023-04-01T08:00:21;19.80;52.50
45803;DHT22;31504;51.716;9.184;2023-04-01T08:06:37;19.90;52.50
45803;DHT22;31504;51.716;9.184;2023-04-01T08:09:53;19.80;52.30
45803;DHT22;31504;51.716;9.184;2023-04-01T08:16:09;19.80;52.60
45803;DHT22;31504;51.716;9.184;2023-04-01T08:22:16;19.90;52.20
45803;DHT22;31504;51.716;9.184;2023-04-01T08:25:20;19.80;52.60
45803;DHT22;31504;51.716;9.184;2023-04-01T08:28:39;19.70;52.60
45803;DHT22;31504;51.716;9.184;2023-04-01T08:34:50;19.70;52.60
45803;DHT22;31504;51.716;9.184;2023-04-01T08:37:51;19.70;52.60
45803;DHT22;31504;51.716;9.184;2023-04-01T08:47:16;19.80;52.60
45803;DHT22;31504;51.716;9.184;2023-04-01T08:50:23;19.80;52.60
45803;DHT22;31504;51.716;9.184;2023-04-01T08:53:48;19.90;52.90
45803;DHT22;31504;51.716;9.184;2023-04-01T08:56:55;19.90;52.90
45803;DHT22;31504;51.716;9.184;2023-04-01T08:59:58;20.00;53.10
45803;DHT22;31504;51.716;9.184;2023-04-01T09:16:01;19.90;52.70
45803;DHT22;31504;51.716;9.184;2023-04-01T09:22:31;19.90;52.90
45803;DHT22;31504;51.716;9.184;2023-04-01T09:29:05;19.80;53.00
45803;DHT22;31504;51.716;9.184;2023-04-01T09:32:15;19.80;52.80
45803;DHT22;31504;51.716;9.184;2023-04-01T09:35:22;19.80;53.10
45803;DHT22;31504;51.716;9.184;2023-04-01T09:38:29;19.80;53.10
45803;DHT22;31504;51.716;9.184;2023-04-01T09:41:31;19.80;53.00
45803;DHT22;31504;51.716;9.184;2023-04-01T10:01:17;19.90;52.70
45803;DHT22;31504;51.716;9.184;2023-04-01T10:04:20;19.90;53.10
45803;DHT22;31504;51.716;9.184;2023-04-01T10:11:00;19.90;52.80
45803;DHT22;31504;51.716;9.184;2023-04-01T10:14:18;19.90;53.00
45803;DHT22;31504;51.716;9.184;2023-04-01T10:20:55;19.90;52.90
45803;DHT22;31504;51.716;9.184;2023-04-01T10:33:44;19.90;53.10
45803;DHT22;31504;51.716;9.184;2023-04-01T10:36:47;19.90;53.10
45803;DHT22;31504;51.716;9.184;2023-04-01T11:05:25;19.90;53.20
45803;DHT22;31504;51.716;9.184;2023-04-01T11:08:37;19.90;53.50
45803;DHT22;31504;51.716;9.184;2023-04-01T11:24:53;20.50;52.70
45803;DHT22;31504;51.716;9.184;2023-04-01T11:34:35;19.90;53.20
45803;DHT22;31504;51.716;9.184;2023-04-01T11:40:44;19.90;53.40
45803;DHT22;31504;51.716;9.184;2023-04-01T11:53:13;20.10;53.30
45803;DHT22;31504;51.716;9.184;2023-04-01T11:56:27;20.20;53.00
45803;DHT22;31504;51.716;9.184;2023-04-01T12:06:08;20.00;53.50
45803;DHT22;31504;51.716;9.184;2023-04-01T12:18:40;20.00;53.60
45803;DHT22;31504;51.716;9.184;2023-04-01T12:21:45;20.00;53.90
45803;DHT22;31504;51.716;9.184;2023-04-01T12:34:29;20.20;53.50
45803;DHT22;31504;51.716;9.184;2023-04-01T12:37:39;20.30;53.20
45803;DHT22;31504;51.716;9.184;2023-04-01T12:40:45;20.30;53.40
45803;DHT22;31504;51.716;9.184;2023-04-01T12:46:54;20.30;53.40
45803;DHT22;31504;51.716;9.184;2023-04-01T12:50:09;20.30;53.60
45803;DHT22;31504;51.716;9.184;2023-04-01T13:03:18;20.20;54.00
45803;DHT22;31504;51.716;9.184;2023-04-01T13:15:56;20.20;54.60
45803;DHT22;31504;51.716;9.184;2023-04-01T13:19:01;20.20;54.30
45803;DHT22;31504;51.716;9.184;2023-04-01T13:22:15;20.20;54.30
45803;DHT22;31504;51.716;9.184;2023-04-01T13:28:23;20.10;54.40
45803;DHT22;31504;51.716;9.184;2023-04-01T13:41:23;20.10;54.80
45803;DHT22;31504;51.716;9.184;2023-04-01T13:44:34;20.20;54.30
45803;DHT22;31504;51.716;9.184;2023-04-01T13:47:42;20.10;54.40
45803;DHT22;31504;51.716;9.184;2023-04-01T13:50:53;20.10;54.70
45803;DHT22;31504;51.716;9.184;2023-04-01T13:54:08;20.00;55.10
45803;DHT22;31504;51.716;9.184;2023-04-01T14:00:33;20.40;54.70
45803;DHT22;31504;51.716;9.184;2023-04-01T14:03:42;20.40;54.20
45803;DHT22;31504;51.716;9.184;2023-04-01T14:06:50;20.40;54.50
45803;DHT22;31504;51.716;9.184;2023-04-01T14:13:00;20.30;54.40
45803;DHT22;31504;51.716;9.184;2023-04-01T14:37:58;20.60;54.00
45803;DHT22;31504;51.716;9.184;2023-04-01T14:44:05;20.70;54.10
45803;DHT22;31504;51.716;9.184;2023-04-01T14:47:14;20.70;54.20
45803;DHT22;31504;51.716;9.184;2023-04-01T14:50:23;20.70;54.20
45803;DHT22;31504;51.716;9.184;2023-04-01T14:53:31;20.70;54.50
45803;DHT22;31504;51.716;9.184;2023-04-01T14:59:51;20.70;54.50
45803;DHT22;31504;51.716;9.184;2023-04-01T15:09:11;20.70;54.50
45803;DHT22;31504;51.716;9.184;2023-04-01T15:12:33;20.50;54.80
45803;DHT22;31504;51.716;9.184;2023-04-01T15:21:50;20.60;54.90
45803;DHT22;31504;51.716;9.184;2023-04-01T15:31:21;20.40;55.70
45803;DHT22;31504;51.716;9.184;2023-04-01T15:34:41;20.40;55.90
45803;DHT22;31504;51.716;9.184;2023-04-01T15:37:55;20.50;56.10
45803;DHT22;31504;51.716;9.184;2023-04-01T15:41:00;20.50;56.00
45803;DHT22;31504;51.716;9.184;2023-04-01T15:44:02;20.60;56.80
45803;DHT22;31504;51.716;9.184;2023-04-01T15:47:07;20.70;56.40
45803;DHT22;31504;51.716;9.184;2023-04-01T15:50:26;20.80;56.70
45803;DHT22;31504;51.716;9.184;2023-04-01T16:06:03;20.40;57.90
45803;DHT22;31504;51.716;9.184;2023-04-01T16:12:34;20.50;59.70
45803;DHT22;31504;51.716;9.184;2023-04-01T16:21:53;20.70;60.40
45803;DHT22;31504;51.716;9.184;2023-04-01T16:25:14;20.70;60.90
45803;DHT22;31504;51.716;9.184;2023-04-01T16:28:34;20.70;61.40
45803;DHT22;31504;51.716;9.184;2023-04-01T16:31:42;20.80;61.50
45803;DHT22;31504;51.716;9.184;2023-04-01T16:40:57;20.90;63.60
45803;DHT22;31504;51.716;9.184;2023-04-01T16:44:20;21.00;64.20
45803;DHT22;31504;51.716;9.184;2023-04-01T16:47:22;21.40;65.90
45803;DHT22;31504;51.716;9.184;2023-04-01T16:50:30;21.40;65.80
45803;DHT22;31504;51.716;9.184;2023-04-01T16:53:42;21.20;65.00
45803;DHT22;31504;51.716;9.184;2023-04-01T16:56:45;21.10;64.10
45803;DHT22;31504;51.716;9.184;2023-04-01T16:59:54;21.10;63.60
45803;DHT22;31504;51.716;9.184;2023-04-01T17:09:15;20.90;64.40
45803;DHT22;31504;51.716;9.184;2023-04-01T17:12:24;21.10;66.40
45803;DHT22;31504;51.716;9.184;2023-04-01T17:21:54;21.30;67.30
45803;DHT22;31504;51.716;9.184;2023-04-01T17:25:04;21.30;67.50
45803;DHT22;31504;51.716;9.184;2023-04-01T17:31:32;21.20;66.70
45803;DHT22;31504;51.716;9.184;2023-04-01T17:34:43;21.20;65.80
45803;DHT22;31504;51.716;9.184;2023-04-01T17:53:53;21.70;67.50
45803;DHT22;31504;51.716;9.184;2023-04-01T17:56:59;21.70;68.50
45803;DHT22;31504;51.716;9.184;2023-04-01T18:00:13;21.90;67.60
45803;DHT22;31504;51.716;9.184;2023-04-01T18:19:04;22.10;68.20
45803;DHT22;31504;51.716;9.184;2023-04-01T18:22:16;22.30;67.80
45803;DHT22;31504;51.716;9.184;2023-04-01T18:28:36;22.00;67.00
45803;DHT22;31504;51.716;9.184;2023-04-01T18:31:41;22.00;68.80
45803;DHT22;31504;51.716;9.184;2023-04-01T18:38:25;22.30;68.80
45803;DHT22;31504;51.716;9.184;2023-04-01T18:41:34;22.40;70.60
45803;DHT22;31504;51.716;9.184;2023-04-01T18:44:38;22.50;68.60
45803;DHT22;31504;51.716;9.184;2023-04-01T18:47:56;22.40;69.10
45803;DHT22;31504;51.716;9.184;2023-04-01T18:50:59;22.40;68.30
45803;DHT22;31504;51.716;9.184;2023-04-01T18:54:02;22.30;68.90
45803;DHT22;31504;51.716;9.184;2023-04-01T18:57:10;22.40;67.70
45803;DHT22;31504;51.716;9.184;2023-04-01T19:00:22;22.40;67.40
45803;DHT22;31504;51.716;9.184;2023-04-01T19:06:33;22.50;67.50
45803;DHT22;31504;51.716;9.184;2023-04-01T19:09:44;22.40;67.50
45803;DHT22;31504;51.716;9.184;2023-04-01T19:25:22;22.50;65.20
45803;DHT22;31504;51.716;9.184;2023-04-01T19:28:41;22.40;64.70
45803;DHT22;31504;51.716;9.184;2023-04-01T19:34:49;22.40;63.80
45803;DHT22;31504;51.716;9.184;2023-04-01T19:37:55;22.60;62.30
45803;DHT22;31504;51.716;9.184;2023-04-01T19:50:29;21.80;57.90
45803;DHT22;31504;51.716;9.184;2023-04-01T19:53:49;21.70;58.00
45803;DHT22;31504;51.716;9.184;2023-04-01T20:03:30;21.50;56.40
45803;DHT22;31504;51.716;9.184;2023-04-01T20:13:15;21.30;56.00
45803;DHT22;31504;51.716;9.184;2023-04-01T20:16:18;21.30;55.90
45803;DHT22;31504;51.716;9.184;2023-04-01T20:19:25;21.20;55.80
45803;DHT22;31504;51.716;9.184;2023-04-01T20:26:19;21.20;55.40
45803;DHT22;31504;51.716;9.184;2023-04-01T20:32:32;21.00;54.90
45803;DHT22;31504;51.716;9.184;2023-04-01T20:42:16;21.00;54.90
45803;DHT22;31504;51.716;9.184;2023-04-01T20:51:55;20.80;54.20
45803;DHT22;31504;51.716;9.184;2023-04-01T21:01:54;20.80;53.50
45803;DHT22;31504;51.716;9.184;2023-04-01T21:05:06;20.70;53.40
45803;DHT22;31504;51.716;9.184;2023-04-01T21:17:16;20.80;53.70
45803;DHT22;31504;51.716;9.184;2023-04-01T21:33:08;20.80;54.10
45803;DHT22;31504;51.716;9.184;2023-04-01T21:36:20;20.80;54.00
45803;DHT22;31504;51.716;9.184;2023-04-01T21:42:45;20.80;54.00
45803;DHT22;31504;51.716;9.184;2023-04-01T21:52:23;20.30;56.40
45803;DHT22;31504;51.716;9.184;2023-04-01T22:18:17;20.40;57.40
45803;DHT22;31504;51.716;9.184;2023-04-01T22:21:24;20.50;57.20
45803;DHT22;31504;51.716;9.184;2023-04-01T22:24:29;20.40;56.90
45803;DHT22;31504;51.716;9.184;2023-04-01T22:30:49;20.40;57.30
45803;DHT22;31504;51.716;9.184;2023-04-01T22:34:09;20.40;57.90
45803;DHT22;31504;51.716;9.184;2023-04-01T22:40:21;20.40;58.20
45803;DHT22;31504;51.716;9.184;2023-04-01T22:46:41;20.50;57.10
45803;DHT22;31504;51.716;9.184;2023-04-01T22:49:47;20.50;58.20
45803;DHT22;31504;51.716;9.184;2023-04-01T22:52:50;20.50;57.50
45803;DHT22;31504;51.716;9.184;2023-04-01T22:55:57;20.40;57.20
45803;DHT22;31504;51.716;9.184;2023-04-01T22:59:05;20.50;58.10
45803;DHT22;31504;51.716;9.184;2023-04-01T23:02:59;20.60;57.70
45803;DHT22;31504;51.716;9.184;2023-04-01T23:05:30;20.70;56.90
45803;DHT22;31504;51.716;9.184;2023-04-01T23:12:04;20.60;56.10
45803;DHT22;31504;51.716;9.184;2023-04-01T23:15:10;20.60;56.50
45803;DHT22;31504;51.716;9.184;2023-04-01T23:18:15;20.50;56.40
45803;DHT22;31504;51.716;9.184;2023-04-01T23:21:21;20.50;57.00
45803;DHT22;31504;51.716;9.184;2023-04-01T23:27:47;20.80;55.10
45803;DHT22;31504;51.716;9.184;2023-04-01T23:30:48;20.60;55.00
45803;DHT22;31504;51.716;9.184;2023-04-01T23:33:52;20.70;54.50
45803;DHT22;31504;51.716;9.184;2023-04-01T23:36:55;20.70;53.90
45803;DHT22;31504;51.716;9.184;2023-04-01T23:39:57;20.80;53.70
45803;DHT22;31504;51.716;9.184;2023-04-01T23:42:58;20.70;53.70
45803;DHT22;31504;51.716;9.184;2023-04-01T23:46:00;20.50;55.10
45803;DHT22;31504;51.716;9.184;2023-04-01T23:49:02;20.30;55.50
45803;DHT22;31504;51.716;9.184;2023-04-01T23:52:17;20.20;55.80
45803;DHT22;31504;51.716;9.184;2023-04-01T23:55:26;20.20;55.50
45803;DHT22;31504;51.716;9.184;2023-04-01T23:58:38;20.30;55.20
